createdAt,value
2022-12-09T00:02:00.315Z,99597.59
2022-12-09T00:04:26.991Z,99597.69
2022-12-09T00:06:53.533Z,99599.19
2022-12-09T00:09:19.915Z,99600.34
2022-12-09T00:11:46.419Z,99590.56
2022-12-09T00:14:12.728Z,99595.69
2022-12-09T00:16:40.132Z,99592.13
2022-12-09T00:19:07.435Z,99592.19
2022-12-09T00:21:34.688Z,99591.53
2022-12-09T00:24:04.585Z,99591.63
2022-12-09T00:26:31.276Z,99587.94
2022-12-09T00:28:58.731Z,99591.47
2022-12-09T00:31:28.509Z,99589.56
2022-12-09T00:33:59.958Z,99585.91
2022-12-09T00:36:26.854Z,99580.66
2022-12-09T00:38:55.488Z,99572.75
2022-12-09T00:41:22.045Z,99576.22
2022-12-09T00:43:48.908Z,99577.06
2022-12-09T00:46:15.745Z,99585.78
2022-12-09T00:48:42.747Z,99580.44
2022-12-09T00:51:12.676Z,99581.19
2022-12-09T00:53:39.176Z,99587.00
2022-12-09T00:56:06.549Z,99586.13
2022-12-09T00:58:33.215Z,99577.34
2022-12-09T01:00:59.823Z,99579.34
2022-12-09T01:03:26.672Z,99576.88
2022-12-09T01:05:53.124Z,99581.41
2022-12-09T01:08:19.816Z,99576.69
2022-12-09T01:10:47.375Z,99584.44
2022-12-09T01:13:15.380Z,99578.88
2022-12-09T01:15:42.357Z,99574.69
2022-12-09T01:18:11.163Z,99570.78
2022-12-09T01:20:37.472Z,99580.59
2022-12-09T01:23:03.956Z,99571.53
2022-12-09T01:25:30.350Z,99578.38
2022-12-09T01:27:56.740Z,99570.53
2022-12-09T01:30:23.228Z,99559.44
2022-12-09T01:32:49.669Z,99577.44
2022-12-09T01:35:16.124Z,99582.81
2022-12-09T01:37:42.649Z,99574.88
2022-12-09T01:40:15.478Z,99573.59
2022-12-09T01:42:41.814Z,99574.19
2022-12-09T01:45:20.718Z,99584.59
2022-12-09T01:47:49.114Z,99569.50
2022-12-09T01:50:16.684Z,99574.13
2022-12-09T01:52:44.218Z,99571.22
2022-12-09T01:55:11.167Z,99554.34
2022-12-09T01:57:37.916Z,99561.53
2022-12-09T02:00:05.954Z,99559.94
2022-12-09T02:02:36.329Z,99561.09
2022-12-09T02:05:04.305Z,99554.78
2022-12-09T02:07:31.456Z,99552.00
2022-12-09T02:09:58.115Z,99549.41
2022-12-09T02:12:31.864Z,99543.34
2022-12-09T02:15:02.838Z,99546.25
2022-12-09T02:17:48.686Z,99544.56
2022-12-09T02:20:23.716Z,99544.88
2022-12-09T02:23:00.342Z,99550.00
2022-12-09T02:25:32.300Z,99536.69
2022-12-09T02:28:36.665Z,99543.78
2022-12-09T02:31:24.158Z,99540.66
2022-12-09T02:34:09.761Z,99540.72
2022-12-09T02:36:54.007Z,99532.59
2022-12-09T02:39:25.915Z,99530.72
2022-12-09T02:41:54.765Z,99536.94
2022-12-09T02:44:24.371Z,99532.34
2022-12-09T02:46:52.553Z,99527.03
2022-12-09T02:49:21.269Z,99526.19
2022-12-09T02:51:50.014Z,99522.66
2022-12-09T02:54:18.839Z,99519.00
2022-12-09T02:56:53.016Z,99518.59
2022-12-09T02:59:19.398Z,99506.19
2022-12-09T03:01:57.742Z,99512.94
2022-12-09T03:04:28.194Z,99511.59
2022-12-09T03:06:56.720Z,99498.31
2022-12-09T03:09:31.873Z,99507.81
2022-12-09T03:12:02.045Z,99499.25
2022-12-09T03:14:40.510Z,99498.00
2022-12-09T03:17:21.957Z,99494.41
2022-12-09T03:20:05.130Z,99473.63
2022-12-09T03:22:38.722Z,99483.41
2022-12-09T03:25:12.970Z,99486.91
2022-12-09T03:27:53.567Z,99478.00
2022-12-09T03:30:20.569Z,99484.16
2022-12-09T03:32:47.553Z,99488.34
2022-12-09T03:35:42.423Z,99482.00
2022-12-09T03:38:14.722Z,99477.34
2022-12-09T03:40:42.622Z,99479.06
2022-12-09T03:43:14.539Z,99478.81
2022-12-09T03:45:41.910Z,99484.13
2022-12-09T03:48:09.226Z,99481.56
2022-12-09T03:50:49.510Z,99480.19
2022-12-09T03:53:21.453Z,99481.81
2022-12-09T03:56:10.419Z,99466.72
2022-12-09T03:58:40.688Z,99474.59
2022-12-09T04:01:07.391Z,99475.25
2022-12-09T04:03:34.677Z,99477.59
2022-12-09T04:06:01.544Z,99466.16
2022-12-09T04:08:27.958Z,99470.78
2022-12-09T04:10:54.590Z,99472.41
2022-12-09T04:13:20.978Z,99473.19
2022-12-09T04:15:47.552Z,99466.69
2022-12-09T04:18:14.010Z,99472.56
2022-12-09T04:20:40.467Z,99465.47
2022-12-09T04:23:06.788Z,99463.53
2022-12-09T04:25:33.417Z,99462.63
2022-12-09T04:27:59.743Z,99465.28
2022-12-09T04:30:26.430Z,99468.53
2022-12-09T04:32:52.930Z,99458.91
2022-12-09T04:35:19.239Z,99461.38
2022-12-09T04:37:45.610Z,99465.81
2022-12-09T04:40:18.193Z,99468.47
2022-12-09T04:42:47.666Z,99468.56
2022-12-09T04:45:14.772Z,99457.16
2022-12-09T04:47:41.377Z,99457.94
2022-12-09T04:50:08.151Z,99466.94
2022-12-09T04:52:35.380Z,99461.63
2022-12-09T04:55:02.306Z,99453.56
2022-12-09T04:57:29.653Z,99459.84
2022-12-09T04:59:56.042Z,99458.13
2022-12-09T05:02:22.578Z,99463.69
2022-12-09T05:04:49.323Z,99463.53
2022-12-09T05:07:16.216Z,99454.63
2022-12-09T05:09:42.609Z,99457.25
2022-12-09T05:12:09.926Z,99451.88
2022-12-09T05:14:36.785Z,99454.63
2022-12-09T05:17:04.544Z,99450.19
2022-12-09T05:19:31.023Z,99445.88
2022-12-09T05:21:57.557Z,99450.41
2022-12-09T05:24:24.289Z,99447.88
2022-12-09T05:26:50.798Z,99450.88
2022-12-09T05:29:22.511Z,99448.50
2022-12-09T05:31:51.559Z,99443.13
2022-12-09T05:34:19.062Z,99436.84
2022-12-09T05:36:46.121Z,99436.78
2022-12-09T05:39:12.819Z,99432.72
2022-12-09T05:41:39.550Z,99435.44
2022-12-09T05:44:06.353Z,99428.81
2022-12-09T05:46:32.979Z,99433.94
2022-12-09T05:48:59.636Z,99409.47
2022-12-09T05:51:29.239Z,99421.91
2022-12-09T05:53:57.011Z,99419.38
2022-12-09T05:56:24.683Z,99413.16
2022-12-09T05:58:52.287Z,99417.34
2022-12-09T06:01:19.298Z,99405.41
2022-12-09T06:03:50.991Z,99404.47
2022-12-09T06:06:20.781Z,99405.41
2022-12-09T06:08:47.456Z,99402.91
2022-12-09T06:11:19.783Z,99398.34
2022-12-09T06:13:47.222Z,99397.56
2022-12-09T06:16:14.923Z,99405.44
2022-12-09T06:18:41.774Z,99407.09
2022-12-09T06:21:10.862Z,99412.41
2022-12-09T06:23:41.278Z,99411.66
2022-12-09T06:26:14.852Z,99420.63
2022-12-09T06:28:41.196Z,99411.28
2022-12-09T06:31:08.007Z,99415.75
2022-12-09T06:36:22.711Z,99416.66
2022-12-09T06:38:49.511Z,99407.56
2022-12-09T06:41:16.503Z,99415.75
2022-12-09T06:43:43.458Z,99415.75
2022-12-09T06:46:36.091Z,99422.56
2022-12-09T06:49:02.738Z,99415.75
2022-12-09T06:51:29.498Z,99420.16
2022-12-09T06:53:56.797Z,99423.81
2022-12-09T06:56:23.982Z,99420.41
2022-12-09T06:58:50.756Z,99419.44
2022-12-09T07:01:26.850Z,99419.47
2022-12-09T07:03:55.725Z,99411.41
2022-12-09T07:06:28.818Z,99423.94
2022-12-09T07:08:57.343Z,99409.91
2022-12-09T07:11:24.534Z,99415.94
2022-12-09T07:13:51.583Z,99410.56
2022-12-09T07:16:18.621Z,99416.06
2022-12-09T07:18:45.511Z,99422.13
2022-12-09T07:21:15.109Z,99422.88
2022-12-09T07:23:42.199Z,99426.16
2022-12-09T07:26:09.538Z,99423.69
2022-12-09T07:28:39.300Z,99422.63
2022-12-09T07:31:06.510Z,99430.41
2022-12-09T07:33:32.972Z,99421.44
2022-12-09T07:36:00.174Z,99426.75
2022-12-09T07:38:27.056Z,99423.13
2022-12-09T07:40:53.599Z,99419.56
2022-12-09T07:43:20.403Z,99426.63
2022-12-09T07:45:47.161Z,99416.47
2022-12-09T07:48:13.605Z,99414.78
2022-12-09T07:50:40.176Z,99416.78
2022-12-09T07:53:06.856Z,99422.88
2022-12-09T07:55:34.032Z,99413.09
2022-12-09T07:58:00.893Z,99405.25
2022-12-09T08:00:27.535Z,99412.81
2022-12-09T08:02:54.649Z,99420.72
2022-12-09T08:05:21.102Z,99417.97
2022-12-09T08:07:48.521Z,99403.72
2022-12-09T08:10:15.565Z,99412.66
2022-12-09T08:12:42.447Z,99403.00
2022-12-09T08:15:09.681Z,99413.09
2022-12-09T08:17:36.521Z,99409.41
2022-12-09T08:20:05.279Z,99425.94
2022-12-09T08:22:32.442Z,99410.41
2022-12-09T08:24:58.946Z,99412.97
2022-12-09T08:27:25.446Z,99402.47
2022-12-09T08:29:52.183Z,99413.38
2022-12-09T08:32:18.769Z,99412.31
2022-12-09T08:34:46.067Z,99418.28
2022-12-09T08:37:12.729Z,99402.28
2022-12-09T08:39:39.279Z,99405.50
2022-12-09T08:42:05.706Z,99402.63
2022-12-09T08:44:32.392Z,99392.72
2022-12-09T08:46:58.858Z,99408.69
2022-12-09T08:49:25.926Z,99404.22
2022-12-09T08:51:53.565Z,99409.31
2022-12-09T08:54:20.753Z,99403.16
2022-12-09T08:56:49.292Z,99403.03
2022-12-09T08:59:16.412Z,99403.03
2022-12-09T09:01:43.258Z,99403.03
2022-12-09T09:04:12.504Z,99403.09
2022-12-09T09:06:41.477Z,99395.50
2022-12-09T09:09:10.030Z,99399.19
2022-12-09T09:11:37.489Z,99405.00
2022-12-09T09:14:05.930Z,99401.63
2022-12-09T09:16:33.022Z,99397.44
2022-12-09T09:19:00.194Z,99393.25
2022-12-09T09:21:27.078Z,99396.31
2022-12-09T09:23:53.569Z,99391.03
2022-12-09T09:26:23.840Z,99379.56
2022-12-09T09:28:51.001Z,99395.84
2022-12-09T09:31:23.430Z,99393.22
2022-12-09T09:33:50.930Z,99400.19
2022-12-09T09:36:21.803Z,99394.16
2022-12-09T09:38:49.418Z,99388.56
2022-12-09T09:41:37.868Z,99385.13
2022-12-09T09:44:17.434Z,99384.53
2022-12-09T09:46:47.935Z,99378.28
2022-12-09T09:49:38.400Z,99383.50
2022-12-09T09:52:14.535Z,99378.03
2022-12-09T09:54:41.599Z,99371.78
2022-12-09T09:57:23.488Z,99369.81
2022-12-09T10:00:11.303Z,99373.63
2022-12-09T10:02:53.353Z,99379.94
2022-12-09T10:05:30.439Z,99364.38
2022-12-09T10:08:30.197Z,99367.13
2022-12-09T10:11:11.238Z,99373.56
2022-12-09T10:14:10.174Z,99369.94
2022-12-09T10:16:44.692Z,99375.63
2022-12-09T10:19:16.756Z,99361.97
2022-12-09T10:21:45.366Z,99364.06
2022-12-09T10:24:19.318Z,99366.63
2022-12-09T10:26:56.377Z,99365.53
2022-12-09T10:30:02.416Z,99358.88
2022-12-09T10:32:32.564Z,99367.19
2022-12-09T10:34:59.573Z,99360.19
2022-12-09T10:37:28.320Z,99360.13
2022-12-09T10:40:10.566Z,99370.50
2022-12-09T10:43:06.589Z,99365.13
2022-12-09T10:46:00.076Z,99360.22
2022-12-09T10:48:33.425Z,99367.78
2022-12-09T10:51:19.474Z,99365.22
2022-12-09T10:54:00.976Z,99374.84
2022-12-09T10:56:32.355Z,99368.59
2022-12-09T10:59:24.039Z,99361.47
2022-12-09T11:01:56.714Z,99363.81
2022-12-09T11:04:28.697Z,99361.88
2022-12-09T11:07:21.166Z,99361.66
2022-12-09T11:10:05.730Z,99353.38
2022-12-09T11:12:41.298Z,99351.34
2022-12-09T11:15:30.392Z,99347.47
2022-12-09T11:18:05.175Z,99337.75
2022-12-09T11:20:33.990Z,99340.59
2022-12-09T11:23:16.115Z,99331.97
2022-12-09T11:25:54.798Z,99341.84
2022-12-09T11:28:26.149Z,99334.34
2022-12-09T11:34:02.721Z,99327.25
2022-12-09T11:36:38.588Z,99325.31
2022-12-09T11:39:17.727Z,99319.31
2022-12-09T11:42:17.460Z,99328.06
2022-12-09T11:45:00.219Z,99320.38
2022-12-09T11:47:50.417Z,99315.88
2022-12-09T11:50:32.456Z,99308.31
2022-12-09T11:53:24.337Z,99308.38
2022-12-09T11:56:06.957Z,99313.72
2022-12-09T11:58:45.217Z,99308.69
2022-12-09T12:01:20.545Z,99308.84
2022-12-09T12:04:01.767Z,99312.31
2022-12-09T12:06:36.903Z,99305.53
2022-12-09T12:09:19.594Z,99304.81
2022-12-09T12:12:10.768Z,99300.59
2022-12-09T12:14:41.107Z,99304.03
2022-12-09T12:17:17.294Z,99297.06
2022-12-09T12:19:48.602Z,99298.75
2022-12-09T12:22:37.936Z,99306.16
2022-12-09T12:25:26.952Z,99295.59
2022-12-09T12:28:11.974Z,99293.06
2022-12-09T12:30:54.149Z,99299.38
2022-12-09T12:36:45.847Z,99288.78
2022-12-09T12:39:14.140Z,99290.72
2022-12-09T12:41:59.442Z,99283.19
2022-12-09T12:45:09.410Z,99290.03
2022-12-09T12:48:04.555Z,99284.09
2022-12-09T12:50:43.509Z,99287.72
2022-12-09T12:53:25.623Z,99280.41
2022-12-09T12:56:05.262Z,99282.81
2022-12-09T12:58:43.455Z,99274.63
2022-12-09T13:01:16.659Z,99284.34
2022-12-09T13:04:07.576Z,99277.41
2022-12-09T13:06:46.120Z,99267.97
2022-12-09T13:09:25.095Z,99265.53
2022-12-09T13:12:00.636Z,99270.72
2022-12-09T13:14:34.876Z,99272.09
2022-12-09T13:17:06.177Z,99268.47
2022-12-09T13:19:44.380Z,99259.91
2022-12-09T13:22:19.274Z,99267.34
2022-12-09T13:25:06.191Z,99265.69
2022-12-09T13:27:51.439Z,99269.25
2022-12-09T13:30:26.336Z,99264.25
2022-12-09T13:33:26.692Z,99265.38
2022-12-09T13:36:12.880Z,99265.56
2022-12-09T13:38:42.358Z,99269.09
2022-12-09T13:41:27.067Z,99261.94
2022-12-09T13:44:04.994Z,99268.13
2022-12-09T13:46:33.274Z,99260.09
2022-12-09T13:49:10.101Z,99257.50
2022-12-09T13:51:51.579Z,99253.81
2022-12-09T13:54:27.170Z,99260.63
2022-12-09T13:57:27.309Z,99259.56
2022-12-09T13:59:55.995Z,99260.28
2022-12-09T14:02:37.414Z,99246.75
2022-12-09T14:05:12.443Z,99256.28
2022-12-09T14:07:47.710Z,99261.28
2022-12-09T14:10:43.264Z,99257.63
2022-12-09T14:13:22.778Z,99270.41
2022-12-09T14:16:13.828Z,99267.59
2022-12-09T14:18:41.033Z,99272.63
2022-12-09T14:21:19.537Z,99274.97
2022-12-09T14:24:07.681Z,99278.22
2022-12-09T14:26:36.288Z,99276.25
2022-12-09T14:29:03.893Z,99275.09
2022-12-09T14:31:44.519Z,99267.56
2022-12-09T14:34:25.862Z,99277.97
2022-12-09T14:37:03.779Z,99263.91
2022-12-09T14:39:40.879Z,99285.50
2022-12-09T14:42:22.640Z,99281.09
2022-12-09T14:45:01.190Z,99277.19
2022-12-09T14:47:30.819Z,99294.53
2022-12-09T14:50:08.675Z,99286.25
2022-12-09T14:52:35.274Z,99293.84
2022-12-09T14:55:08.773Z,99295.25
2022-12-09T14:57:38.803Z,99304.59
2022-12-09T15:00:06.905Z,99303.72
2022-12-09T15:02:33.643Z,99305.25
2022-12-09T15:05:01.826Z,99311.03
2022-12-09T15:07:30.458Z,99303.91
2022-12-09T15:10:17.687Z,99307.34
2022-12-09T15:12:47.165Z,99309.06
2022-12-09T15:15:19.982Z,99308.94
2022-12-09T15:17:54.893Z,99308.78
2022-12-09T15:20:23.654Z,99305.31
2022-12-09T15:22:52.877Z,99309.63
2022-12-09T15:25:20.863Z,99316.06
2022-12-09T15:28:02.998Z,99314.63
2022-12-09T15:30:37.243Z,99307.91
2022-12-09T15:33:12.306Z,99325.31
2022-12-09T15:35:38.713Z,99315.50
2022-12-09T15:38:08.699Z,99321.13
2022-12-09T15:40:36.809Z,99328.59
2022-12-09T15:43:07.510Z,99336.25
2022-12-09T15:45:38.570Z,99335.22
2022-12-09T15:48:27.647Z,99337.66
2022-12-09T15:50:58.471Z,99340.13
2022-12-09T15:53:27.148Z,99343.66
2022-12-09T15:55:58.794Z,99327.63
2022-12-09T15:58:34.382Z,99347.09
2022-12-09T16:01:02.356Z,99340.78
2022-12-09T16:03:31.958Z,99346.75
2022-12-09T16:06:02.041Z,99353.97
2022-12-09T16:08:33.281Z,99348.97
2022-12-09T16:10:59.668Z,99350.63
2022-12-09T16:13:26.461Z,99350.41
2022-12-09T16:15:55.654Z,99354.28
2022-12-09T16:18:33.016Z,99342.13
2022-12-09T16:21:20.881Z,99346.78
2022-12-09T16:23:50.003Z,99363.50
2022-12-09T16:26:31.411Z,99352.41
2022-12-09T16:29:00.738Z,99351.34
2022-12-09T16:31:27.977Z,99357.84
2022-12-09T16:33:55.050Z,99347.19
2022-12-09T16:36:26.503Z,99356.06
2022-12-09T16:39:23.760Z,99365.31
2022-12-09T16:41:52.837Z,99366.97
2022-12-09T16:44:38.334Z,99369.38
2022-12-09T16:47:16.309Z,99363.97
2022-12-09T16:49:46.022Z,99365.75
2022-12-09T16:52:20.398Z,99358.06
2022-12-09T16:54:48.431Z,99361.50
2022-12-09T16:57:16.624Z,99358.66
2022-12-09T16:59:44.011Z,99352.59
2022-12-09T17:02:30.839Z,99354.47
2022-12-09T17:04:57.909Z,99356.84
2022-12-09T17:07:24.229Z,99363.97
2022-12-09T17:09:50.527Z,99362.91
2022-12-09T17:12:16.940Z,99363.84
2022-12-09T17:14:43.383Z,99365.41
2022-12-09T17:17:09.764Z,99372.63
2022-12-09T17:19:36.132Z,99359.91
2022-12-09T17:22:02.551Z,99364.38
2022-12-09T17:24:28.858Z,99368.75
2022-12-09T17:26:55.125Z,99363.38
2022-12-09T17:29:21.449Z,99367.03
2022-12-09T17:31:49.678Z,99367.97
2022-12-09T17:34:16.218Z,99373.28
2022-12-09T17:36:42.889Z,99371.31
2022-12-09T17:39:10.060Z,99368.59
2022-12-09T17:41:36.406Z,99363.97
2022-12-09T17:44:02.693Z,99381.53
2022-12-09T17:46:29.076Z,99379.16
2022-12-09T17:48:55.495Z,99379.25
2022-12-09T17:51:21.948Z,99380.97
2022-12-09T17:53:50.094Z,99377.09
2022-12-09T17:56:22.346Z,99393.66
2022-12-09T17:58:56.282Z,99393.50
2022-12-09T18:01:24.584Z,99391.78
2022-12-09T18:03:56.632Z,99397.19
2022-12-09T18:06:25.830Z,99402.41
2022-12-09T18:08:52.684Z,99399.44
2022-12-09T18:11:19.079Z,99403.88
2022-12-09T18:13:46.518Z,99404.28
2022-12-09T18:16:14.178Z,99407.97
2022-12-09T18:18:41.855Z,99407.72
2022-12-09T18:21:15.070Z,99405.44
2022-12-09T18:23:42.364Z,99409.63
2022-12-09T18:26:11.228Z,99398.78
2022-12-09T18:28:38.025Z,99409.22
2022-12-09T18:31:08.911Z,99415.16
2022-12-09T18:33:36.341Z,99410.03
2022-12-09T18:36:11.440Z,99413.38
2022-12-09T18:38:38.921Z,99410.63
2022-12-09T18:41:19.739Z,99407.72
2022-12-09T18:43:47.893Z,99410.38
2022-12-09T18:46:25.027Z,99414.53
2022-12-09T18:48:59.585Z,99407.66
2022-12-09T18:51:27.603Z,99407.75
2022-12-09T18:53:54.301Z,99411.16
2022-12-09T18:56:20.619Z,99402.97
2022-12-09T18:59:05.843Z,99409.22
2022-12-09T19:01:34.048Z,99408.59
2022-12-09T19:04:01.980Z,99418.78
2022-12-09T19:06:34.303Z,99422.09
2022-12-09T19:09:06.594Z,99420.03
2022-12-09T19:11:35.209Z,99418.84
2022-12-09T19:14:03.199Z,99434.47
2022-12-09T19:16:30.194Z,99430.66
2022-12-09T19:18:57.742Z,99427.13
2022-12-09T19:21:25.941Z,99436.88
2022-12-09T19:23:53.119Z,99428.94
2022-12-09T19:26:22.809Z,99421.84
2022-12-09T19:28:54.982Z,99437.72
2022-12-09T19:31:35.910Z,99425.03
2022-12-09T19:34:05.634Z,99427.44
2022-12-09T19:36:34.091Z,99434.59
2022-12-09T19:39:01.966Z,99427.13
2022-12-09T19:41:28.278Z,99434.94
2022-12-09T19:43:55.805Z,99428.69
2022-12-09T19:46:22.412Z,99425.72
2022-12-09T19:48:48.864Z,99429.06
2022-12-09T19:51:17.112Z,99434.84
2022-12-09T19:53:43.975Z,99435.59
2022-12-09T19:56:12.614Z,99439.03
2022-12-09T19:58:40.977Z,99433.66
2022-12-09T20:01:16.786Z,99443.06
2022-12-09T20:03:45.104Z,99437.91
2022-12-09T20:06:13.733Z,99451.72
2022-12-09T20:08:40.301Z,99448.47
2022-12-09T20:11:12.086Z,99443.25
2022-12-09T20:13:38.465Z,99444.81
2022-12-09T20:16:06.481Z,99444.84
2022-12-09T20:18:35.580Z,99440.97
2022-12-09T20:21:04.147Z,99448.13
2022-12-09T20:23:30.581Z,99441.19
2022-12-09T20:26:25.287Z,99446.16
2022-12-09T20:28:53.912Z,99444.69
2022-12-09T20:31:23.355Z,99454.34
2022-12-09T20:33:57.261Z,99451.00
2022-12-09T20:36:26.403Z,99459.72
2022-12-09T20:38:58.337Z,99455.00
2022-12-09T20:41:25.886Z,99453.97
2022-12-09T20:43:55.994Z,99454.69
2022-12-09T20:46:26.143Z,99454.56
2022-12-09T20:48:52.845Z,99465.94
2022-12-09T20:51:22.753Z,99465.31
2022-12-09T20:53:49.327Z,99465.94
2022-12-09T20:56:19.912Z,99470.22
2022-12-09T20:58:47.968Z,99467.47
2022-12-09T21:01:20.877Z,99470.00
2022-12-09T21:03:48.313Z,99472.50
2022-12-09T21:06:16.408Z,99479.53
2022-12-09T21:08:43.546Z,99477.81
2022-12-09T21:11:12.757Z,99454.25
2022-12-09T21:13:44.153Z,99463.22
2022-12-09T21:16:21.935Z,99469.44
2022-12-09T21:18:50.286Z,99466.78
2022-12-09T21:21:18.229Z,99459.91
2022-12-09T21:23:44.589Z,99460.53
2022-12-09T21:26:15.897Z,99468.75
2022-12-09T21:28:43.418Z,99470.63
2022-12-09T21:31:18.259Z,99469.38
2022-12-09T21:33:45.779Z,99470.25
2022-12-09T21:36:15.578Z,99463.38
2022-12-09T21:38:42.279Z,99470.97
2022-12-09T21:41:13.305Z,99470.69
2022-12-09T21:43:39.980Z,99478.53
2022-12-09T21:46:17.472Z,99470.53
2022-12-09T21:48:45.932Z,99468.22
2022-12-09T21:51:18.382Z,99478.75
2022-12-09T21:53:45.058Z,99473.94
2022-12-09T21:56:15.625Z,99475.47
2022-12-09T21:58:43.164Z,99475.41
2022-12-09T22:01:16.783Z,99480.69
2022-12-09T22:03:43.617Z,99477.25
2022-12-09T22:06:12.931Z,99479.91
2022-12-09T22:08:41.428Z,99483.41
2022-12-09T22:11:20.295Z,99489.44
2022-12-09T22:13:47.175Z,99487.91
2022-12-09T22:16:16.270Z,99483.13
2022-12-09T22:18:42.985Z,99485.34
2022-12-09T22:21:28.416Z,99485.22
2022-12-09T22:23:58.612Z,99493.78
2022-12-09T22:26:25.275Z,99497.78
2022-12-09T22:28:51.977Z,99494.16
2022-12-09T22:31:27.060Z,99497.31
2022-12-09T22:33:55.615Z,99507.81
2022-12-09T22:36:23.023Z,99497.31
2022-12-09T22:38:49.885Z,99502.94
2022-12-09T22:41:19.325Z,99505.88
2022-12-09T22:43:45.882Z,99499.94
2022-12-09T22:46:15.534Z,99504.88
2022-12-09T22:48:42.580Z,99502.94
2022-12-09T22:51:17.708Z,99507.84
2022-12-09T22:53:44.626Z,99507.84
2022-12-09T22:56:12.088Z,99508.91
2022-12-09T22:58:38.482Z,99503.63
2022-12-09T23:01:12.847Z,99514.38
2022-12-09T23:03:39.127Z,99484.44
2022-12-09T23:06:06.698Z,99507.97
2022-12-09T23:08:33.767Z,99500.53
2022-12-09T23:11:06.717Z,99509.69
2022-12-09T23:13:36.225Z,99514.03
2022-12-09T23:16:08.987Z,99502.88
2022-12-09T23:18:35.918Z,99500.22
2022-12-09T23:21:05.142Z,99508.59
2022-12-09T23:23:32.066Z,99500.03
2022-12-09T23:26:11.366Z,99510.53
2022-12-09T23:28:43.311Z,99508.84
2022-12-09T23:31:11.912Z,99518.66
2022-12-09T23:33:39.920Z,99521.84
2022-12-09T23:36:09.190Z,99522.50
2022-12-09T23:38:35.981Z,99520.63
2022-12-09T23:41:03.134Z,99511.97
2022-12-09T23:43:36.999Z,99520.44
2022-12-09T23:46:08.839Z,99512.63
2022-12-09T23:48:39.477Z,99517.50
2022-12-09T23:51:16.051Z,99517.28
2022-12-09T23:53:43.852Z,99516.09
2022-12-09T23:56:12.355Z,99516.03
2022-12-09T23:58:39.706Z,99520.00
